Aérodrome :
LOGIN :

S'inscrire | Disclaimer

   EN    FR    IT 

 










Légende :    VFR   VFR Marginal   IFR   IFR Intensif   IFR Très Intensif
Visi : 
Plafond : 
>= 8 km
>= 3000ft
5 à 8 km
1000 à 3000 ft
1500m à 5 km
500 à 1000 ft
800 à 1500m
200 à 500 ft
< 800m
< 200 ft
Symboles :   Orages  Brouillard  Fortes neiges  Fortes précipitations  Vent > 20 kt
SIGMETs :   Divers  Orages  Givrage  Turbulence  Onde Orograph.  Cendres Volcan.






- Altitude de l'aérodrome : 184 ft
- Code IATA : BRU


EBBR - Bruxelles

DERNIER METAR :
  • 190150Z 26008KT 9999 SCT031 05/02 Q1014 NOSIG

METARs EXPIRÉS :
  • 190120Z 26007KT 9999 FEW042 05/02 Q1014 NOSIG
  • 190050Z 27009KT 9999 FEW031 05/02 Q1014 NOSIG
  • 190020Z 26007KT CAVOK 05/03 Q1014 NOSIG
  • 182350Z 28007KT CAVOK 05/03 Q1014 NOSIG
  • 182320Z 29009KT CAVOK 06/03 Q1014 NOSIG

TAF TAF EBBR
Valide du 19 à 00h jusqu'au 20 à 06h UTC


182310Z 1900/2006 26007KT 9999 FEW020TCU
PROB30
TEMPO 1902/1910 4000 SHRA BKN012
BECMG 1922/1924 2000 BR
TEMPO 2002/2006 0400 FG BKN001
PROB40
TEMPO 2003/2006 FZFG



MET'MAP, la Météo Aéronautique d'un coup d'oeil ! - Copyright ORBIFLY Décembre 2007 - Disclaimer

ORBIFLY MET'MAP TEAM :

Programmation & Développement : Alexandra Zaïnal
Conception & Développement : Baudouin d'Aumeries
Co-Programmation & Développement : Marc-Olivier Méhu
Soutien technique & logistique : Manuel Goepfert

Contact : metmap@orbifly.com




SOURCES & CREDITS :

   NOAA